createdAt,value
2022-10-08T00:00:09.725Z,101464.75
2022-10-08T00:02:41.149Z,101427.84
2022-10-08T00:05:10.865Z,101477.06
2022-10-08T00:07:42.604Z,101476.16
2022-10-08T00:10:11.067Z,101427.69
2022-10-08T00:12:39.485Z,101467.13
2022-10-08T00:15:09.602Z,101461.91
2022-10-08T00:17:38.040Z,101475.09
2022-10-08T00:20:07.395Z,101476.94
2022-10-08T00:22:35.790Z,101476.97
2022-10-08T00:25:06.080Z,101472.50
2022-10-08T00:27:34.904Z,101406.44
2022-10-08T00:30:05.740Z,101415.22
2022-10-08T00:32:34.121Z,101462.03
2022-10-08T00:35:04.709Z,101468.25
2022-10-08T00:37:33.055Z,101497.53
2022-10-08T00:40:01.349Z,101463.84
2022-10-08T00:42:31.328Z,101462.03
2022-10-08T00:45:03.991Z,101458.53
2022-10-08T00:47:41.744Z,101366.09
2022-10-08T00:50:17.373Z,101478.78
2022-10-08T00:52:50.861Z,101434.78
2022-10-08T00:55:23.272Z,101462.03
2022-10-08T00:57:53.482Z,101388.00
2022-10-08T01:00:25.933Z,101418.75
2022-10-08T01:02:55.659Z,101391.47
2022-10-08T01:05:32.162Z,101466.28
2022-10-08T01:08:10.105Z,101438.94
2022-10-08T01:10:46.766Z,101426.66
2022-10-08T01:13:31.106Z,101483.00
2022-10-08T01:16:11.793Z,101438.09
2022-10-08T01:18:45.944Z,101393.41
2022-10-08T01:21:17.503Z,101450.72
2022-10-08T01:24:10.800Z,101479.88
2022-10-08T01:26:54.044Z,101488.22
2022-10-08T01:29:29.555Z,101439.03
2022-10-08T01:32:07.237Z,101485.88
2022-10-08T01:34:41.971Z,101459.00
2022-10-08T01:37:21.573Z,101463.22
2022-10-08T01:39:54.598Z,101453.53
2022-10-08T01:42:25.429Z,101483.56
2022-10-08T01:45:03.245Z,101415.72
2022-10-08T01:47:32.831Z,101480.91
2022-10-08T01:50:08.916Z,101482.72
2022-10-08T01:52:43.365Z,101538.69
2022-10-08T01:55:20.780Z,101415.66
2022-10-08T01:57:50.491Z,101491.69
2022-10-08T02:00:20.682Z,101488.44
2022-10-08T02:02:49.402Z,101490.13
2022-10-08T02:05:19.565Z,101427.63
2022-10-08T02:07:47.983Z,101360.56
2022-10-08T02:10:19.453Z,101423.63
2022-10-08T02:12:48.161Z,101490.16
2022-10-08T02:15:21.752Z,101489.28
2022-10-08T02:17:58.971Z,101499.81
2022-10-08T02:20:36.345Z,101496.28
2022-10-08T02:23:12.211Z,101448.59
2022-10-08T02:25:48.711Z,101499.81
2022-10-08T02:28:24.841Z,101495.28
2022-10-08T02:30:59.655Z,101503.53
2022-10-08T02:33:34.621Z,101508.84
2022-10-08T02:36:05.919Z,101518.53
2022-10-08T02:38:40.296Z,101503.19
2022-10-08T02:41:10.312Z,101445.31
2022-10-08T02:43:46.994Z,101492.03
2022-10-08T02:46:21.605Z,101499.78
2022-10-08T02:48:58.111Z,101399.72
2022-10-08T02:51:28.239Z,101422.75
2022-10-08T02:54:02.554Z,101466.84
2022-10-08T02:56:35.946Z,101442.25
2022-10-08T02:59:10.705Z,101490.16
2022-10-08T03:01:46.125Z,101507.69
2022-10-08T03:04:21.202Z,101507.84
2022-10-08T03:06:51.035Z,101532.75
2022-10-08T03:09:21.830Z,101516.97
2022-10-08T03:11:51.024Z,101508.91
2022-10-08T03:14:22.382Z,101470.97
2022-10-08T03:16:52.418Z,101517.44
2022-10-08T03:19:21.759Z,101444.06
2022-10-08T03:21:54.711Z,101528.81
2022-10-08T03:24:25.585Z,101534.97
2022-10-08T03:26:57.104Z,101462.72
2022-10-08T03:29:25.596Z,101492.75
2022-10-08T03:31:55.277Z,101543.00
2022-10-08T03:34:25.691Z,101530.53
2022-10-08T03:36:54.175Z,101549.91
2022-10-08T03:39:22.515Z,101543.69
2022-10-08T03:41:50.957Z,101557.19
2022-10-08T03:44:19.212Z,101558.38
2022-10-08T03:46:47.589Z,101559.28
2022-10-08T03:49:17.563Z,101514.41
2022-10-08T03:51:46.077Z,101551.41
2022-10-08T03:54:14.420Z,101497.69
2022-10-08T03:56:42.767Z,101570.94
2022-10-08T03:59:11.285Z,101509.38
2022-10-08T04:01:39.719Z,101457.44
2022-10-08T04:04:08.200Z,101518.34
2022-10-08T04:06:37.990Z,101514.88
2022-10-08T04:09:06.379Z,101595.53
2022-10-08T04:11:40.101Z,101582.03
2022-10-08T04:14:08.778Z,101589.94
2022-10-08T04:16:37.188Z,101583.00
2022-10-08T04:19:05.614Z,101511.09
2022-10-08T04:21:33.965Z,101560.19
2022-10-08T04:24:03.820Z,101595.66
2022-10-08T04:26:32.212Z,101613.47
2022-10-08T04:29:00.959Z,101587.69
2022-10-08T04:31:29.497Z,101433.28
2022-10-08T04:33:58.273Z,101595.66
2022-10-08T04:36:26.906Z,101516.41
2022-10-08T04:39:00.163Z,101571.88
2022-10-08T04:41:30.072Z,101342.66
2022-10-08T04:44:01.851Z,101588.81
2022-10-08T04:46:31.124Z,101603.69
2022-10-08T04:49:00.175Z,101625.78
2022-10-08T04:51:29.366Z,101585.28
2022-10-08T04:53:58.919Z,101617.97
2022-10-08T04:56:30.922Z,101593.06
2022-10-08T04:59:00.660Z,101626.81
2022-10-08T05:01:31.024Z,101579.16
2022-10-08T05:04:00.977Z,101627.63
2022-10-08T05:06:32.191Z,101614.44
2022-10-08T05:09:03.411Z,101618.03
2022-10-08T05:11:34.084Z,101619.66
2022-10-08T05:14:03.017Z,101561.44
2022-10-08T05:16:31.562Z,101562.31
2022-10-08T05:19:00.336Z,101642.66
2022-10-08T05:21:31.403Z,101652.41
2022-10-08T05:24:04.074Z,101624.16
2022-10-08T05:29:25.404Z,101615.28
2022-10-08T05:31:53.898Z,101666.56
2022-10-08T05:34:22.597Z,101651.56
2022-10-08T05:36:51.021Z,101661.38
2022-10-08T05:39:19.832Z,101665.66
2022-10-08T05:41:49.591Z,101659.50
2022-10-08T05:44:18.052Z,101658.78
2022-10-08T05:46:46.501Z,101680.13
2022-10-08T05:49:23.086Z,101662.38
2022-10-08T05:51:52.369Z,101670.25
2022-10-08T05:54:21.980Z,101692.50
2022-10-08T05:56:54.149Z,101695.19
2022-10-08T05:59:25.296Z,101696.88
2022-10-08T06:01:53.804Z,101698.56
2022-10-08T06:04:22.253Z,101690.72
2022-10-08T06:06:50.638Z,101712.97
2022-10-08T06:09:21.358Z,101708.47
2022-10-08T06:11:51.009Z,101648.44
2022-10-08T06:14:20.323Z,101724.53
2022-10-08T06:16:48.819Z,101728.94
2022-10-08T06:19:17.752Z,101724.50
2022-10-08T06:21:46.217Z,101702.53
2022-10-08T06:24:14.979Z,101673.38
2022-10-08T06:26:45.025Z,101701.66
2022-10-08T06:29:18.490Z,101753.81
2022-10-08T06:31:47.893Z,101728.19
2022-10-08T06:34:16.936Z,101763.66
2022-10-08T06:36:45.379Z,101694.69
2022-10-08T06:39:17.876Z,101746.03
2022-10-08T06:41:46.426Z,101776.97
2022-10-08T06:44:19.174Z,101744.44
2022-10-08T06:46:48.185Z,101757.63
2022-10-08T06:49:18.259Z,101754.97
2022-10-08T06:51:46.746Z,101818.66
2022-10-08T06:54:15.288Z,101763.41
2022-10-08T06:56:43.873Z,101705.88
2022-10-08T06:59:12.497Z,101792.16
2022-10-08T07:01:42.320Z,101812.22
2022-10-08T07:04:12.959Z,101807.63
2022-10-08T07:06:41.452Z,101810.91
2022-10-08T07:09:10.479Z,101794.78
2022-10-08T07:11:40.195Z,101819.47
2022-10-08T07:14:08.601Z,101786.00
2022-10-08T07:16:37.009Z,101828.19
2022-10-08T07:19:06.981Z,101796.97
2022-10-08T07:21:35.483Z,101817.97
2022-10-08T07:24:03.964Z,101842.34
2022-10-08T07:26:35.384Z,101841.06
2022-10-08T07:29:07.044Z,101842.91
2022-10-08T07:31:38.495Z,101848.13
2022-10-08T07:34:12.349Z,101841.88
2022-10-08T07:36:41.767Z,101861.50
2022-10-08T07:39:13.919Z,101856.94
2022-10-08T07:41:43.174Z,101846.78
2022-10-08T07:44:13.189Z,101832.06
2022-10-08T07:46:46.009Z,101854.19
2022-10-08T07:49:17.138Z,101825.00
2022-10-08T07:51:46.642Z,101482.16
2022-10-08T07:54:18.788Z,101841.13
2022-10-08T07:56:47.744Z,101891.00
2022-10-08T07:59:16.339Z,101856.75
2022-10-08T08:01:45.757Z,101520.41
2022-10-08T08:04:15.847Z,101907.44
2022-10-08T08:06:49.216Z,101867.88
2022-10-08T08:09:18.647Z,101912.56
2022-10-08T08:11:47.301Z,101917.50
2022-10-08T08:14:16.390Z,101880.59
2022-10-08T08:16:44.871Z,101872.03
2022-10-08T08:19:13.346Z,101840.06
2022-10-08T08:21:43.031Z,101890.81
2022-10-08T08:24:13.753Z,101951.44
2022-10-08T08:26:43.431Z,101938.09
2022-10-08T08:29:15.231Z,101951.06
2022-10-08T08:31:46.156Z,101916.81
2022-10-08T08:34:18.163Z,101920.09
2022-10-08T08:36:51.148Z,101947.97
2022-10-08T08:39:21.809Z,101941.66
2022-10-08T08:42:07.392Z,101789.50
2022-10-08T08:44:39.631Z,101949.75
2022-10-08T08:47:18.853Z,101964.19
2022-10-08T08:49:52.561Z,101954.22
2022-10-08T08:52:25.962Z,101977.00
2022-10-08T08:54:55.165Z,101892.09
2022-10-08T08:57:38.083Z,101988.66
2022-10-08T09:00:13.846Z,101981.53
2022-10-08T09:02:53.586Z,101936.28
2022-10-08T09:05:24.851Z,101970.84
2022-10-08T09:08:05.286Z,102005.81
2022-10-08T09:10:43.225Z,101976.81
2022-10-08T09:13:19.472Z,102006.31
2022-10-08T09:15:48.147Z,102022.88
2022-10-08T09:18:17.731Z,102017.31
2022-10-08T09:20:46.466Z,101975.59
2022-10-08T09:23:18.836Z,102012.03
2022-10-08T09:25:54.338Z,102034.09
2022-10-08T09:28:44.701Z,101991.69
2022-10-08T09:31:22.372Z,102026.84
2022-10-08T09:34:05.251Z,102031.81
2022-10-08T09:36:37.742Z,102043.09
2022-10-08T09:39:19.969Z,101993.97
2022-10-08T09:42:10.956Z,102050.88
2022-10-08T09:44:42.886Z,102040.03
2022-10-08T09:47:15.094Z,102049.09
2022-10-08T09:49:49.974Z,102050.16
2022-10-08T09:52:23.524Z,102043.53
2022-10-08T09:54:59.092Z,102060.22
2022-10-08T09:57:28.166Z,102063.25
2022-10-08T10:00:01.846Z,102017.06
2022-10-08T10:02:33.384Z,102035.53
2022-10-08T10:05:04.356Z,102067.31
2022-10-08T10:07:43.079Z,102071.34
2022-10-08T10:10:19.975Z,102061.78
2022-10-08T10:12:52.910Z,102041.44
2022-10-08T10:15:25.120Z,102037.16
2022-10-08T10:17:56.429Z,102049.47
2022-10-08T10:20:29.155Z,102087.94
2022-10-08T10:23:03.414Z,102090.44
2022-10-08T10:25:39.676Z,102079.03
2022-10-08T10:28:14.270Z,102069.59
2022-10-08T10:30:52.882Z,102104.19
2022-10-08T10:33:25.799Z,102060.91
2022-10-08T10:36:00.457Z,102093.56
2022-10-08T10:38:32.555Z,102096.94
2022-10-08T10:41:12.814Z,102104.03
2022-10-08T10:43:50.799Z,102103.53
2022-10-08T10:46:28.098Z,101838.72
2022-10-08T10:48:57.437Z,102117.72
2022-10-08T10:51:41.172Z,102118.69
2022-10-08T10:54:32.569Z,102123.25
2022-10-08T10:57:10.673Z,102114.94
2022-10-08T10:59:47.371Z,102126.31
2022-10-08T11:02:24.624Z,102120.41
2022-10-08T11:05:05.619Z,102124.34
2022-10-08T11:08:11.283Z,102132.91
2022-10-08T11:10:55.194Z,102094.09
2022-10-08T11:13:48.047Z,102126.84
2022-10-08T11:16:41.283Z,102156.47
2022-10-08T11:19:27.781Z,102140.91
2022-10-08T11:22:07.379Z,102136.75
2022-10-08T11:25:08.994Z,102140.78
2022-10-08T11:27:50.394Z,102103.47
2022-10-08T11:30:37.979Z,101766.44
2022-10-08T11:33:10.447Z,102086.44
2022-10-08T11:35:49.952Z,102152.56
2022-10-08T11:38:25.213Z,102139.72
2022-10-08T11:40:59.316Z,102141.38
2022-10-08T11:43:34.482Z,102141.94
2022-10-08T11:46:30.805Z,102139.84
2022-10-08T11:49:01.929Z,101782.69
2022-10-08T11:51:50.471Z,102114.25
2022-10-08T11:54:31.116Z,102124.66
2022-10-08T11:57:13.718Z,102136.31
2022-10-08T11:59:45.203Z,102132.09
2022-10-08T12:02:29.726Z,102114.88
2022-10-08T12:05:01.804Z,102114.97
2022-10-08T12:07:34.407Z,102126.00
2022-10-08T12:10:33.199Z,102135.00
2022-10-08T12:13:31.738Z,102159.84
2022-10-08T12:16:06.736Z,102059.13
2022-10-08T12:18:54.679Z,102145.13
2022-10-08T12:21:51.003Z,102135.91
2022-10-08T12:24:56.817Z,102145.41
2022-10-08T12:27:39.303Z,102073.03
2022-10-08T12:30:12.030Z,102130.31
2022-10-08T12:32:59.062Z,102135.69
2022-10-08T12:35:32.085Z,102154.44
2022-10-08T12:38:24.171Z,102149.72
2022-10-08T12:41:05.295Z,102160.41
2022-10-08T12:43:43.252Z,102155.94
2022-10-08T12:46:25.789Z,102156.56
2022-10-08T12:49:00.539Z,102162.78
2022-10-08T12:51:41.502Z,102147.56
2022-10-08T12:54:21.213Z,102156.66
2022-10-08T12:56:50.769Z,102136.25
2022-10-08T12:59:21.371Z,102155.47
2022-10-08T13:01:51.652Z,102129.63
2022-10-08T13:04:23.515Z,102140.81
2022-10-08T13:06:54.890Z,102160.44
2022-10-08T13:09:32.527Z,102127.91
2022-10-08T13:12:04.081Z,102158.41
2022-10-08T13:14:35.811Z,102163.25
2022-10-08T13:17:05.216Z,101967.94
2022-10-08T13:19:36.458Z,102142.72
2022-10-08T13:22:09.282Z,102153.97
2022-10-08T13:24:42.884Z,102150.22
2022-10-08T13:27:26.895Z,101852.19
2022-10-08T13:29:56.043Z,102172.63
2022-10-08T13:32:26.005Z,102152.03
2022-10-08T13:34:58.701Z,102176.16
2022-10-08T13:37:37.251Z,102161.38
2022-10-08T13:40:19.691Z,102170.69
2022-10-08T13:42:51.762Z,102164.75
2022-10-08T13:45:23.034Z,102023.00
2022-10-08T13:47:52.027Z,102199.59
2022-10-08T13:50:21.421Z,102141.56
2022-10-08T13:52:55.039Z,102079.38
2022-10-08T13:55:27.810Z,102099.69
2022-10-08T13:57:57.726Z,102187.22
2022-10-08T14:00:27.678Z,102165.00
2022-10-08T14:02:56.393Z,102212.38
2022-10-08T14:05:26.493Z,102116.03
2022-10-08T14:08:01.783Z,102220.94
2022-10-08T14:10:30.802Z,102211.47
2022-10-08T14:12:59.303Z,102128.22
2022-10-08T14:15:27.706Z,102191.19
2022-10-08T14:17:56.059Z,102123.06
2022-10-08T14:20:24.689Z,102128.09
2022-10-08T14:22:53.576Z,102156.00
2022-10-08T14:25:28.512Z,102192.31
2022-10-08T14:27:56.987Z,102205.94
2022-10-08T14:30:25.753Z,102047.56
2022-10-08T14:32:54.577Z,102145.88
2022-10-08T14:35:23.608Z,102169.56
2022-10-08T14:37:52.074Z,102207.16
2022-10-08T14:40:23.827Z,102192.16
2022-10-08T14:42:52.483Z,102204.50
2022-10-08T14:45:22.297Z,102216.47
2022-10-08T14:47:50.806Z,102207.69
2022-10-08T14:50:19.380Z,102207.50
2022-10-08T14:52:48.159Z,102213.78
2022-10-08T14:55:17.044Z,102224.50
2022-10-08T14:57:46.775Z,102213.03
2022-10-08T15:00:16.245Z,102230.75
2022-10-08T15:02:44.931Z,102184.75
2022-10-08T15:05:13.484Z,102226.84
2022-10-08T15:07:41.940Z,102224.28
2022-10-08T15:10:10.972Z,102192.63
2022-10-08T15:12:39.381Z,102125.28
2022-10-08T15:15:10.519Z,102212.22
2022-10-08T15:17:39.039Z,102219.38
2022-10-08T15:20:08.539Z,102221.88
2022-10-08T15:22:37.057Z,102188.91
2022-10-08T15:25:06.596Z,102202.16
2022-10-08T15:27:35.061Z,102217.75
2022-10-08T15:30:03.677Z,102172.28
2022-10-08T15:32:33.446Z,102141.06
2022-10-08T15:35:01.852Z,102132.78
2022-10-08T15:37:30.153Z,102229.22
2022-10-08T15:39:58.556Z,102229.25
2022-10-08T15:42:27.133Z,102186.00
2022-10-08T15:44:55.534Z,102207.41
2022-10-08T15:47:24.056Z,102190.72
2022-10-08T15:49:54.168Z,102228.88
2022-10-08T15:52:23.432Z,102231.53
2022-10-08T15:54:51.888Z,102208.50
2022-10-08T15:57:20.471Z,102176.47
2022-10-08T15:59:49.081Z,102204.00
2022-10-08T16:02:18.620Z,102245.63
2022-10-08T16:04:48.298Z,102226.03
2022-10-08T16:07:18.274Z,102234.03
2022-10-08T16:09:47.170Z,102244.72
2022-10-08T16:12:15.685Z,102236.59
2022-10-08T16:14:44.264Z,102263.22
2022-10-08T16:17:13.305Z,102243.63
2022-10-08T16:19:42.007Z,102255.09
2022-10-08T16:22:10.921Z,102225.69
2022-10-08T16:24:40.847Z,102242.53
2022-10-08T16:27:09.415Z,102258.66
2022-10-08T16:29:37.761Z,102244.59
2022-10-08T16:32:06.173Z,102269.31
2022-10-08T16:34:34.637Z,102227.66
2022-10-08T16:37:04.955Z,102271.00
2022-10-08T16:39:33.376Z,102258.44
2022-10-08T16:42:03.208Z,102250.47
2022-10-08T16:44:31.869Z,102269.94
2022-10-08T16:47:00.679Z,102220.28
2022-10-08T16:49:30.876Z,102277.03
2022-10-08T16:52:02.479Z,102282.34
2022-10-08T16:54:33.866Z,102277.03
2022-10-08T16:57:03.699Z,102280.69
2022-10-08T16:59:32.396Z,102239.88
2022-10-08T17:02:02.542Z,102250.53
2022-10-08T17:04:36.303Z,102282.47
2022-10-08T17:07:05.033Z,102282.59
2022-10-08T17:09:33.569Z,102296.75
2022-10-08T17:12:03.603Z,102286.94
2022-10-08T17:14:33.139Z,102293.13
2022-10-08T17:17:01.643Z,102296.66
2022-10-08T17:19:30.136Z,102294.00
2022-10-08T17:21:58.536Z,102311.06
2022-10-08T17:24:27.205Z,102298.66
2022-10-08T17:26:55.679Z,102275.66
2022-10-08T17:29:25.494Z,102302.31
2022-10-08T17:31:53.966Z,102311.34
2022-10-08T17:34:22.575Z,102304.22
2022-10-08T17:36:50.957Z,102323.69
2022-10-08T17:39:21.080Z,102300.72
2022-10-08T17:41:49.914Z,102323.78
2022-10-08T17:44:18.542Z,102328.28
2022-10-08T17:46:49.466Z,102339.88
2022-10-08T17:49:20.365Z,102309.59
2022-10-08T17:51:51.065Z,102348.88
2022-10-08T17:54:20.837Z,102333.66
2022-10-08T17:56:49.737Z,102335.59
2022-10-08T17:59:20.403Z,102338.56
2022-10-08T18:01:50.282Z,102303.44
2022-10-08T18:04:20.679Z,102329.13
2022-10-08T18:06:49.767Z,102339.88
2022-10-08T18:09:21.102Z,102220.00
2022-10-08T18:11:53.513Z,102314.13
2022-10-08T18:14:22.886Z,102292.84
2022-10-08T18:16:52.856Z,102359.50
2022-10-08T18:19:21.346Z,102351.44
2022-10-08T18:21:49.691Z,102349.63
2022-10-08T18:24:19.917Z,102324.75
2022-10-08T18:26:48.441Z,102261.72
2022-10-08T18:29:19.739Z,102324.75
2022-10-08T18:31:48.351Z,102359.38
2022-10-08T18:34:20.065Z,102230.63
2022-10-08T18:36:48.703Z,102357.63
2022-10-08T18:39:18.918Z,102342.53
2022-10-08T18:41:49.234Z,102364.69
2022-10-08T18:44:20.433Z,102370.94
2022-10-08T18:46:49.361Z,102365.63
2022-10-08T18:49:23.863Z,102346.94
2022-10-08T18:51:52.523Z,102361.13
2022-10-08T18:54:20.979Z,102380.72
2022-10-08T18:56:49.402Z,102375.34
2022-10-08T18:59:18.713Z,102324.75
2022-10-08T19:01:49.063Z,102360.31
2022-10-08T19:04:21.352Z,102383.44
2022-10-08T19:06:53.441Z,102371.06
2022-10-08T19:09:22.792Z,102357.72
2022-10-08T19:11:54.414Z,102204.06
2022-10-08T19:14:24.723Z,102381.72
2022-10-08T19:16:53.535Z,102384.38
2022-10-08T19:19:27.359Z,102385.28
2022-10-08T19:21:56.283Z,102392.41
2022-10-08T19:24:27.104Z,102391.50
2022-10-08T19:26:57.253Z,102291.97
2022-10-08T19:29:29.387Z,102371.94
2022-10-08T19:32:00.664Z,102390.63
2022-10-08T19:34:30.458Z,102387.94
2022-10-08T19:36:59.029Z,102404.84
2022-10-08T19:39:30.831Z,102401.31
2022-10-08T19:41:59.890Z,102377.31
2022-10-08T19:44:28.422Z,102266.19
2022-10-08T19:46:56.873Z,102383.50
2022-10-08T19:49:25.371Z,102444.00
2022-10-08T19:51:55.412Z,102400.41
2022-10-08T19:54:23.924Z,102384.41
2022-10-08T19:56:52.215Z,102388.84
2022-10-08T19:59:20.822Z,102347.09
2022-10-08T20:01:49.231Z,102339.97
2022-10-08T20:04:17.745Z,102348.84
2022-10-08T20:06:46.219Z,102236.03
2022-10-08T20:09:17.670Z,102379.06
2022-10-08T20:11:47.121Z,102354.19
2022-10-08T20:14:17.645Z,102406.66
2022-10-08T20:16:46.072Z,102406.66
2022-10-08T20:19:17.602Z,102407.56
2022-10-08T20:21:46.809Z,102386.22
2022-10-08T20:24:17.927Z,102409.28
2022-10-08T20:26:46.553Z,102408.41
2022-10-08T20:29:17.196Z,102401.28
2022-10-08T20:31:50.008Z,102411.03
2022-10-08T20:34:21.381Z,102406.59
2022-10-08T20:36:51.188Z,102412.81
2022-10-08T20:39:23.276Z,102405.69
2022-10-08T20:41:52.764Z,102394.13
2022-10-08T20:44:21.492Z,102415.47
2022-10-08T20:46:51.776Z,102397.72
2022-10-08T20:49:20.634Z,102398.56
2022-10-08T20:51:49.427Z,102414.59
2022-10-08T20:54:20.101Z,102400.31
2022-10-08T20:56:48.461Z,102413.66
2022-10-08T20:59:19.964Z,102404.78
2022-10-08T21:01:50.563Z,102411.91
2022-10-08T21:04:19.230Z,102435.03
2022-10-08T21:06:49.962Z,102323.03
2022-10-08T21:09:21.219Z,102411.00
2022-10-08T21:11:51.055Z,102383.44
2022-10-08T21:14:22.583Z,102298.06
2022-10-08T21:16:51.233Z,102275.81
2022-10-08T21:19:23.374Z,102398.53
2022-10-08T21:21:52.285Z,102408.28
2022-10-08T21:24:22.109Z,102414.50
2022-10-08T21:26:52.593Z,102416.25
2022-10-08T21:29:21.301Z,102418.94
2022-10-08T21:31:49.827Z,102420.72
2022-10-08T21:34:18.439Z,102415.38
2022-10-08T21:36:46.787Z,102412.75
2022-10-08T21:39:17.791Z,102219.75
2022-10-08T21:41:47.873Z,102302.38
2022-10-08T21:44:16.368Z,102409.16
2022-10-08T21:46:47.002Z,102418.00
2022-10-08T21:49:18.139Z,102402.94
2022-10-08T21:51:46.577Z,102397.53
2022-10-08T21:54:15.384Z,102345.16
2022-10-08T21:56:44.834Z,102439.41
2022-10-08T21:59:17.558Z,102415.47
2022-10-08T22:01:48.053Z,102361.22
2022-10-08T22:04:18.929Z,102369.22
2022-10-08T22:06:50.460Z,102417.25
2022-10-08T22:09:22.150Z,102417.19
2022-10-08T22:11:52.781Z,102396.78
2022-10-08T22:14:23.269Z,102407.44
2022-10-08T22:16:51.971Z,102393.25
2022-10-08T22:19:20.843Z,102043.91
2022-10-08T22:21:49.348Z,102395.88
2022-10-08T22:24:17.841Z,102407.44
2022-10-08T22:26:48.196Z,102408.31
2022-10-08T22:29:17.468Z,102245.63
2022-10-08T22:31:47.263Z,102402.16
2022-10-08T22:34:15.832Z,102393.25
2022-10-08T22:36:46.076Z,102352.31
2022-10-08T22:39:14.622Z,102404.78
2022-10-08T22:41:43.132Z,102419.88
2022-10-08T22:44:11.919Z,102351.44
2022-10-08T22:46:40.710Z,102373.66
2022-10-08T22:49:12.289Z,102364.75
2022-10-08T22:51:41.284Z,102403.00
2022-10-08T22:54:10.155Z,102397.69
2022-10-08T22:56:38.559Z,102407.44
2022-10-08T22:59:06.939Z,102406.56
2022-10-08T23:01:35.374Z,102372.78
2022-10-08T23:04:03.801Z,102380.78
2022-10-08T23:06:35.876Z,102395.88
2022-10-08T23:09:07.367Z,102391.41
2022-10-08T23:11:38.903Z,102390.53
2022-10-08T23:14:08.042Z,102340.72
2022-10-08T23:16:39.006Z,102394.13
2022-10-08T23:19:10.211Z,102335.44
2022-10-08T23:21:43.449Z,102379.00
2022-10-08T23:24:12.742Z,102401.25
2022-10-08T23:26:44.003Z,102355.91
2022-10-08T23:29:12.872Z,102391.47
2022-10-08T23:31:41.307Z,102386.09
2022-10-08T23:34:10.164Z,102394.06
2022-10-08T23:36:45.501Z,102356.75
2022-10-08T23:39:18.286Z,102386.06
2022-10-08T23:41:46.634Z,102317.53
2022-10-08T23:44:15.346Z,102391.34
2022-10-08T23:46:44.677Z,102386.91
2022-10-08T23:49:13.170Z,102361.13
2022-10-08T23:51:43.186Z,102384.25
2022-10-08T23:54:11.692Z,102354.94
2022-10-08T23:56:40.212Z,102404.69
2022-10-08T23:59:08.729Z,102394.84
